sensor_id;sensor_type;location;lat;lon;timestamp;P1;durP1;ratioP1;P2;durP2;ratioP2
6564;SDS011;3316;44.118;27.258;2023-04-24T00:00:33;11.60;;;6.60;;
6564;SDS011;3316;44.118;27.258;2023-04-24T00:02:58;10.50;;;6.83;;
6564;SDS011;3316;44.118;27.258;2023-04-24T00:05:24;8.53;;;6.50;;
6564;SDS011;3316;44.118;27.258;2023-04-24T00:07:50;12.27;;;7.00;;
6564;SDS011;3316;44.118;27.258;2023-04-24T00:10:19;9.63;;;6.40;;
6564;SDS011;3316;44.118;27.258;2023-04-24T00:12:45;12.33;;;6.57;;
6564;SDS011;3316;44.118;27.258;2023-04-24T00:15:10;11.33;;;6.80;;
6564;SDS011;3316;44.118;27.258;2023-04-24T00:17:36;11.10;;;6.93;;
6564;SDS011;3316;44.118;27.258;2023-04-24T00:20:02;13.90;;;7.20;;
6564;SDS011;3316;44.118;27.258;2023-04-24T00:22:29;10.10;;;6.43;;
6564;SDS011;3316;44.118;27.258;2023-04-24T00:24:55;14.43;;;6.20;;
6564;SDS011;3316;44.118;27.258;2023-04-24T00:27:21;11.37;;;6.57;;
6564;SDS011;3316;44.118;27.258;2023-04-24T00:29:47;9.73;;;6.87;;
6564;SDS011;3316;44.118;27.258;2023-04-24T00:32:13;9.80;;;6.10;;
6564;SDS011;3316;44.118;27.258;2023-04-24T00:34:39;10.57;;;6.57;;
6564;SDS011;3316;44.118;27.258;2023-04-24T00:37:05;11.80;;;6.73;;
6564;SDS011;3316;44.118;27.258;2023-04-24T00:39:31;9.00;;;6.57;;
6564;SDS011;3316;44.118;27.258;2023-04-24T00:41:56;10.97;;;6.43;;
6564;SDS011;3316;44.118;27.258;2023-04-24T00:44:22;11.47;;;6.67;;
6564;SDS011;3316;44.118;27.258;2023-04-24T00:46:48;10.60;;;6.50;;
6564;SDS011;3316;44.118;27.258;2023-04-24T00:49:20;11.73;;;6.83;;
6564;SDS011;3316;44.118;27.258;2023-04-24T00:51:49;10.90;;;6.67;;
6564;SDS011;3316;44.118;27.258;2023-04-24T00:54:16;11.27;;;6.70;;
6564;SDS011;3316;44.118;27.258;2023-04-24T00:56:42;13.87;;;6.83;;
6564;SDS011;3316;44.118;27.258;2023-04-24T00:59:08;11.30;;;6.83;;
6564;SDS011;3316;44.118;27.258;2023-04-24T01:01:34;11.67;;;6.47;;
6564;SDS011;3316;44.118;27.258;2023-04-24T01:04:00;10.03;;;6.80;;
6564;SDS011;3316;44.118;27.258;2023-04-24T01:06:27;13.07;;;6.57;;
6564;SDS011;3316;44.118;27.258;2023-04-24T01:08:56;11.50;;;6.40;;
6564;SDS011;3316;44.118;27.258;2023-04-24T01:11:23;14.53;;;6.80;;
6564;SDS011;3316;44.118;27.258;2023-04-24T01:13:50;12.33;;;6.73;;
6564;SDS011;3316;44.118;27.258;2023-04-24T01:16:16;14.07;;;7.30;;
6564;SDS011;3316;44.118;27.258;2023-04-24T01:18:42;13.57;;;6.90;;
6564;SDS011;3316;44.118;27.258;2023-04-24T01:21:08;11.07;;;7.30;;
6564;SDS011;3316;44.118;27.258;2023-04-24T01:23:36;12.10;;;7.50;;
6564;SDS011;3316;44.118;27.258;2023-04-24T01:26:01;11.20;;;6.77;;
6564;SDS011;3316;44.118;27.258;2023-04-24T01:28:27;10.27;;;6.33;;
6564;SDS011;3316;44.118;27.258;2023-04-24T01:30:52;13.43;;;6.60;;
6564;SDS011;3316;44.118;27.258;2023-04-24T01:33:18;10.23;;;7.10;;
6564;SDS011;3316;44.118;27.258;2023-04-24T01:35:46;12.67;;;6.57;;
6564;SDS011;3316;44.118;27.258;2023-04-24T01:38:11;12.80;;;7.30;;
6564;SDS011;3316;44.118;27.258;2023-04-24T01:40:37;10.33;;;6.83;;
6564;SDS011;3316;44.118;27.258;2023-04-24T01:43:02;9.93;;;6.97;;
6564;SDS011;3316;44.118;27.258;2023-04-24T01:45:28;11.50;;;7.27;;
6564;SDS011;3316;44.118;27.258;2023-04-24T01:47:54;16.50;;;7.47;;
6564;SDS011;3316;44.118;27.258;2023-04-24T01:50:19;13.30;;;7.33;;
6564;SDS011;3316;44.118;27.258;2023-04-24T01:52:45;18.30;;;7.47;;
6564;SDS011;3316;44.118;27.258;2023-04-24T01:55:10;14.00;;;6.90;;
6564;SDS011;3316;44.118;27.258;2023-04-24T01:57:36;13.23;;;7.47;;
6564;SDS011;3316;44.118;27.258;2023-04-24T02:00:02;13.13;;;7.00;;
6564;SDS011;3316;44.118;27.258;2023-04-24T02:02:29;13.30;;;7.00;;
6564;SDS011;3316;44.118;27.258;2023-04-24T02:04:55;14.60;;;6.67;;
6564;SDS011;3316;44.118;27.258;2023-04-24T02:07:21;9.57;;;6.40;;
6564;SDS011;3316;44.118;27.258;2023-04-24T02:09:47;15.40;;;6.83;;
6564;SDS011;3316;44.118;27.258;2023-04-24T02:12:13;11.00;;;6.80;;
6564;SDS011;3316;44.118;27.258;2023-04-24T02:14:39;11.47;;;7.40;;
6564;SDS011;3316;44.118;27.258;2023-04-24T02:17:04;12.50;;;6.47;;
6564;SDS011;3316;44.118;27.258;2023-04-24T02:19:30;15.90;;;6.40;;
6564;SDS011;3316;44.118;27.258;2023-04-24T02:21:56;11.73;;;7.17;;
6564;SDS011;3316;44.118;27.258;2023-04-24T02:24:21;13.07;;;7.53;;
6564;SDS011;3316;44.118;27.258;2023-04-24T02:26:47;14.20;;;7.17;;
6564;SDS011;3316;44.118;27.258;2023-04-24T02:29:12;13.87;;;7.67;;
6564;SDS011;3316;44.118;27.258;2023-04-24T02:31:37;12.00;;;7.57;;
6564;SDS011;3316;44.118;27.258;2023-04-24T02:34:03;11.43;;;7.83;;
6564;SDS011;3316;44.118;27.258;2023-04-24T02:36:28;13.57;;;7.40;;
6564;SDS011;3316;44.118;27.258;2023-04-24T02:38:55;12.60;;;7.83;;
6564;SDS011;3316;44.118;27.258;2023-04-24T02:41:20;15.63;;;7.37;;
6564;SDS011;3316;44.118;27.258;2023-04-24T02:43:46;10.00;;;7.13;;
6564;SDS011;3316;44.118;27.258;2023-04-24T02:46:11;14.23;;;7.87;;
6564;SDS011;3316;44.118;27.258;2023-04-24T02:48:37;16.10;;;8.57;;
6564;SDS011;3316;44.118;27.258;2023-04-24T02:51:03;14.40;;;7.00;;
6564;SDS011;3316;44.118;27.258;2023-04-24T02:53:28;14.33;;;7.30;;
6564;SDS011;3316;44.118;27.258;2023-04-24T02:55:55;11.93;;;7.67;;
6564;SDS011;3316;44.118;27.258;2023-04-24T02:58:21;19.00;;;7.53;;
6564;SDS011;3316;44.118;27.258;2023-04-24T03:00:46;10.77;;;7.30;;
6564;SDS011;3316;44.118;27.258;2023-04-24T03:03:12;20.87;;;7.10;;
6564;SDS011;3316;44.118;27.258;2023-04-24T03:05:38;12.97;;;7.17;;
6564;SDS011;3316;44.118;27.258;2023-04-24T03:08:04;14.00;;;7.83;;
6564;SDS011;3316;44.118;27.258;2023-04-24T03:10:29;15.17;;;7.43;;
6564;SDS011;3316;44.118;27.258;2023-04-24T03:12:55;14.50;;;7.10;;
6564;SDS011;3316;44.118;27.258;2023-04-24T03:15:20;12.30;;;7.63;;
6564;SDS011;3316;44.118;27.258;2023-04-24T03:17:46;13.70;;;7.53;;
6564;SDS011;3316;44.118;27.258;2023-04-24T03:20:12;11.50;;;7.70;;
6564;SDS011;3316;44.118;27.258;2023-04-24T03:22:38;11.93;;;7.50;;
6564;SDS011;3316;44.118;27.258;2023-04-24T03:25:03;17.07;;;7.93;;
6564;SDS011;3316;44.118;27.258;2023-04-24T03:27:30;19.23;;;8.77;;
6564;SDS011;3316;44.118;27.258;2023-04-24T03:29:55;18.50;;;9.47;;
6564;SDS011;3316;44.118;27.258;2023-04-24T03:32:21;16.23;;;9.50;;
6564;SDS011;3316;44.118;27.258;2023-04-24T03:34:48;18.50;;;9.63;;
6564;SDS011;3316;44.118;27.258;2023-04-24T03:37:13;17.33;;;10.93;;
6564;SDS011;3316;44.118;27.258;2023-04-24T03:39:39;15.17;;;9.83;;
6564;SDS011;3316;44.118;27.258;2023-04-24T03:42:05;11.90;;;8.23;;
6564;SDS011;3316;44.118;27.258;2023-04-24T03:44:30;15.03;;;8.20;;
6564;SDS011;3316;44.118;27.258;2023-04-24T03:46:57;10.67;;;7.77;;
6564;SDS011;3316;44.118;27.258;2023-04-24T03:49:23;11.37;;;7.43;;
6564;SDS011;3316;44.118;27.258;2023-04-24T03:51:48;16.23;;;9.13;;
6564;SDS011;3316;44.118;27.258;2023-04-24T03:54:14;15.10;;;8.33;;
6564;SDS011;3316;44.118;27.258;2023-04-24T03:56:39;12.37;;;8.40;;
6564;SDS011;3316;44.118;27.258;2023-04-24T03:59:05;15.57;;;7.43;;
6564;SDS011;3316;44.118;27.258;2023-04-24T04:01:30;22.60;;;7.90;;
6564;SDS011;3316;44.118;27.258;2023-04-24T04:03:56;20.40;;;7.27;;
6564;SDS011;3316;44.118;27.258;2023-04-24T04:06:21;14.57;;;7.00;;
6564;SDS011;3316;44.118;27.258;2023-04-24T04:08:47;11.47;;;6.77;;
6564;SDS011;3316;44.118;27.258;2023-04-24T04:11:12;10.47;;;6.40;;
6564;SDS011;3316;44.118;27.258;2023-04-24T04:13:38;12.47;;;7.70;;
6564;SDS011;3316;44.118;27.258;2023-04-24T04:16:04;9.17;;;6.77;;
6564;SDS011;3316;44.118;27.258;2023-04-24T04:18:29;15.40;;;7.73;;
6564;SDS011;3316;44.118;27.258;2023-04-24T04:20:55;15.37;;;6.90;;
6564;SDS011;3316;44.118;27.258;2023-04-24T04:23:22;13.10;;;7.03;;
6564;SDS011;3316;44.118;27.258;2023-04-24T04:25:47;13.50;;;5.63;;
6564;SDS011;3316;44.118;27.258;2023-04-24T04:28:13;11.77;;;6.77;;
6564;SDS011;3316;44.118;27.258;2023-04-24T04:30:38;10.60;;;6.77;;
6564;SDS011;3316;44.118;27.258;2023-04-24T04:33:05;15.20;;;7.03;;
6564;SDS011;3316;44.118;27.258;2023-04-24T04:35:30;12.87;;;6.23;;
6564;SDS011;3316;44.118;27.258;2023-04-24T04:37:55;14.53;;;7.07;;
6564;SDS011;3316;44.118;27.258;2023-04-24T04:40:23;9.13;;;6.10;;
6564;SDS011;3316;44.118;27.258;2023-04-24T04:42:49;59.57;;;24.30;;
6564;SDS011;3316;44.118;27.258;2023-04-24T04:45:18;12.37;;;6.73;;
6564;SDS011;3316;44.118;27.258;2023-04-24T04:47:43;16.47;;;6.30;;
6564;SDS011;3316;44.118;27.258;2023-04-24T04:50:09;17.23;;;6.40;;
6564;SDS011;3316;44.118;27.258;2023-04-24T04:52:35;16.20;;;7.07;;
6564;SDS011;3316;44.118;27.258;2023-04-24T04:55:01;12.77;;;5.93;;
6564;SDS011;3316;44.118;27.258;2023-04-24T04:57:27;8.30;;;6.27;;
6564;SDS011;3316;44.118;27.258;2023-04-24T04:59:52;13.20;;;6.63;;
6564;SDS011;3316;44.118;27.258;2023-04-24T05:02:18;12.97;;;6.87;;
6564;SDS011;3316;44.118;27.258;2023-04-24T05:04:43;9.47;;;5.80;;
6564;SDS011;3316;44.118;27.258;2023-04-24T05:07:08;17.83;;;7.97;;
6564;SDS011;3316;44.118;27.258;2023-04-24T05:09:34;12.27;;;6.87;;
6564;SDS011;3316;44.118;27.258;2023-04-24T05:11:59;15.10;;;6.50;;
6564;SDS011;3316;44.118;27.258;2023-04-24T05:14:25;13.90;;;6.10;;
6564;SDS011;3316;44.118;27.258;2023-04-24T05:16:51;14.23;;;6.17;;
6564;SDS011;3316;44.118;27.258;2023-04-24T05:19:17;10.83;;;6.37;;
6564;SDS011;3316;44.118;27.258;2023-04-24T05:21:42;12.30;;;5.97;;
6564;SDS011;3316;44.118;27.258;2023-04-24T05:24:08;8.30;;;5.80;;
6564;SDS011;3316;44.118;27.258;2023-04-24T05:26:33;13.10;;;6.87;;
6564;SDS011;3316;44.118;27.258;2023-04-24T05:29:00;20.17;;;6.50;;
6564;SDS011;3316;44.118;27.258;2023-04-24T05:31:26;13.03;;;6.87;;
6564;SDS011;3316;44.118;27.258;2023-04-24T05:33:51;11.73;;;6.03;;
6564;SDS011;3316;44.118;27.258;2023-04-24T05:36:17;12.60;;;6.30;;
6564;SDS011;3316;44.118;27.258;2023-04-24T05:38:42;14.63;;;5.47;;
6564;SDS011;3316;44.118;27.258;2023-04-24T05:41:08;8.57;;;4.40;;
6564;SDS011;3316;44.118;27.258;2023-04-24T05:43:41;12.40;;;5.89;;
6564;SDS011;3316;44.118;27.258;2023-04-24T05:46:07;9.33;;;6.03;;
6564;SDS011;3316;44.118;27.258;2023-04-24T05:48:32;9.40;;;6.20;;
6564;SDS011;3316;44.118;27.258;2023-04-24T05:50:58;8.70;;;5.43;;
6564;SDS011;3316;44.118;27.258;2023-04-24T05:53:23;11.67;;;6.33;;
6564;SDS011;3316;44.118;27.258;2023-04-24T05:55:48;12.27;;;5.67;;
6564;SDS011;3316;44.118;27.258;2023-04-24T05:58:14;11.23;;;5.00;;
6564;SDS011;3316;44.118;27.258;2023-04-24T06:00:40;10.83;;;4.57;;
6564;SDS011;3316;44.118;27.258;2023-04-24T06:03:07;9.97;;;5.70;;
6564;SDS011;3316;44.118;27.258;2023-04-24T06:05:33;7.47;;;4.50;;
6564;SDS011;3316;44.118;27.258;2023-04-24T06:07:59;13.30;;;5.30;;
6564;SDS011;3316;44.118;27.258;2023-04-24T06:10:25;10.83;;;4.93;;
6564;SDS011;3316;44.118;27.258;2023-04-24T06:12:50;13.17;;;4.83;;
6564;SDS011;3316;44.118;27.258;2023-04-24T06:15:16;10.87;;;5.37;;
6564;SDS011;3316;44.118;27.258;2023-04-24T06:17:41;12.77;;;5.20;;
6564;SDS011;3316;44.118;27.258;2023-04-24T06:20:07;7.40;;;4.63;;
6564;SDS011;3316;44.118;27.258;2023-04-24T06:22:33;15.93;;;5.10;;
6564;SDS011;3316;44.118;27.258;2023-04-24T06:24:59;6.80;;;4.67;;
6564;SDS011;3316;44.118;27.258;2023-04-24T06:27:25;13.47;;;4.93;;
6564;SDS011;3316;44.118;27.258;2023-04-24T06:29:50;10.67;;;5.20;;
6564;SDS011;3316;44.118;27.258;2023-04-24T06:32:23;9.93;;;4.97;;
6564;SDS011;3316;44.118;27.258;2023-04-24T06:34:50;11.53;;;5.10;;
6564;SDS011;3316;44.118;27.258;2023-04-24T06:37:22;9.43;;;4.47;;
6564;SDS011;3316;44.118;27.258;2023-04-24T06:39:47;9.70;;;5.00;;
6564;SDS011;3316;44.118;27.258;2023-04-24T06:42:13;14.70;;;5.10;;
6564;SDS011;3316;44.118;27.258;2023-04-24T06:44:38;8.93;;;4.53;;
6564;SDS011;3316;44.118;27.258;2023-04-24T06:47:08;8.73;;;5.13;;
6564;SDS011;3316;44.118;27.258;2023-04-24T06:49:37;11.03;;;4.17;;
6564;SDS011;3316;44.118;27.258;2023-04-24T06:52:02;9.67;;;5.23;;
6564;SDS011;3316;44.118;27.258;2023-04-24T06:54:29;10.53;;;5.03;;
6564;SDS011;3316;44.118;27.258;2023-04-24T06:56:55;7.43;;;4.47;;
6564;SDS011;3316;44.118;27.258;2023-04-24T06:59:22;6.63;;;4.40;;
6564;SDS011;3316;44.118;27.258;2023-04-24T07:01:48;10.60;;;4.90;;
6564;SDS011;3316;44.118;27.258;2023-04-24T07:04:14;14.13;;;4.80;;
6564;SDS011;3316;44.118;27.258;2023-04-24T07:06:39;13.83;;;4.57;;
6564;SDS011;3316;44.118;27.258;2023-04-24T07:09:04;12.10;;;5.43;;
6564;SDS011;3316;44.118;27.258;2023-04-24T07:11:30;5.90;;;4.10;;
6564;SDS011;3316;44.118;27.258;2023-04-24T07:13:56;7.38;;;4.43;;
6564;SDS011;3316;44.118;27.258;2023-04-24T07:16:22;7.13;;;5.00;;
6564;SDS011;3316;44.118;27.258;2023-04-24T07:18:47;9.00;;;4.33;;
6564;SDS011;3316;44.118;27.258;2023-04-24T07:21:13;9.70;;;4.00;;
6564;SDS011;3316;44.118;27.258;2023-04-24T07:23:38;10.73;;;4.70;;
6564;SDS011;3316;44.118;27.258;2023-04-24T07:26:04;6.00;;;4.47;;
6564;SDS011;3316;44.118;27.258;2023-04-24T07:28:30;10.00;;;4.40;;
6564;SDS011;3316;44.118;27.258;2023-04-24T07:30:56;12.13;;;4.37;;
6564;SDS011;3316;44.118;27.258;2023-04-24T07:33:23;14.43;;;4.60;;
6564;SDS011;3316;44.118;27.258;2023-04-24T07:35:49;12.83;;;4.30;;
6564;SDS011;3316;44.118;27.258;2023-04-24T07:38:14;9.50;;;4.80;;
6564;SDS011;3316;44.118;27.258;2023-04-24T07:40:40;7.95;;;4.35;;
6564;SDS011;3316;44.118;27.258;2023-04-24T07:43:05;10.80;;;5.13;;
6564;SDS011;3316;44.118;27.258;2023-04-24T07:45:30;11.98;;;5.40;;
6564;SDS011;3316;44.118;27.258;2023-04-24T07:47:58;11.95;;;4.20;;
6564;SDS011;3316;44.118;27.258;2023-04-24T07:50:24;8.05;;;4.13;;
6564;SDS011;3316;44.118;27.258;2023-04-24T07:52:49;6.93;;;4.55;;
6564;SDS011;3316;44.118;27.258;2023-04-24T07:55:15;20.55;;;7.22;;
6564;SDS011;3316;44.118;27.258;2023-04-24T07:57:40;8.57;;;3.90;;
6564;SDS011;3316;44.118;27.258;2023-04-24T08:00:06;5.68;;;4.00;;
6564;SDS011;3316;44.118;27.258;2023-04-24T08:02:32;10.50;;;5.03;;
6564;SDS011;3316;44.118;27.258;2023-04-24T08:04:58;9.95;;;4.20;;
6564;SDS011;3316;44.118;27.258;2023-04-24T08:07:23;7.57;;;4.73;;
6564;SDS011;3316;44.118;27.258;2023-04-24T08:09:49;6.90;;;4.57;;
6564;SDS011;3316;44.118;27.258;2023-04-24T08:12:14;8.93;;;4.63;;
6564;SDS011;3316;44.118;27.258;2023-04-24T08:14:40;6.65;;;4.53;;
6564;SDS011;3316;44.118;27.258;2023-04-24T08:17:05;11.57;;;5.32;;
6564;SDS011;3316;44.118;27.258;2023-04-24T08:19:31;8.95;;;5.25;;
6564;SDS011;3316;44.118;27.258;2023-04-24T08:21:56;13.73;;;4.47;;
6564;SDS011;3316;44.118;27.258;2023-04-24T08:24:22;13.23;;;4.18;;
6564;SDS011;3316;44.118;27.258;2023-04-24T08:26:48;6.85;;;3.65;;
6564;SDS011;3316;44.118;27.258;2023-04-24T08:29:17;5.80;;;4.07;;
6564;SDS011;3316;44.118;27.258;2023-04-24T08:31:42;10.88;;;3.95;;
6564;SDS011;3316;44.118;27.258;2023-04-24T08:34:09;7.22;;;3.80;;
6564;SDS011;3316;44.118;27.258;2023-04-24T08:36:34;8.77;;;4.20;;
6564;SDS011;3316;44.118;27.258;2023-04-24T08:39:00;7.75;;;3.97;;
6564;SDS011;3316;44.118;27.258;2023-04-24T08:41:26;7.05;;;3.85;;
6564;SDS011;3316;44.118;27.258;2023-04-24T08:43:52;16.98;;;4.32;;
6564;SDS011;3316;44.118;27.258;2023-04-24T08:46:18;15.85;;;4.35;;
6564;SDS011;3316;44.118;27.258;2023-04-24T08:48:44;12.30;;;4.40;;
6564;SDS011;3316;44.118;27.258;2023-04-24T08:51:10;7.57;;;4.13;;
6564;SDS011;3316;44.118;27.258;2023-04-24T08:53:36;10.48;;;4.30;;
6564;SDS011;3316;44.118;27.258;2023-04-24T08:56:02;7.70;;;4.53;;
6564;SDS011;3316;44.118;27.258;2023-04-24T08:58:28;8.35;;;4.00;;
6564;SDS011;3316;44.118;27.258;2023-04-24T09:00:55;8.23;;;3.83;;
6564;SDS011;3316;44.118;27.258;2023-04-24T09:03:22;6.55;;;3.60;;
6564;SDS011;3316;44.118;27.258;2023-04-24T09:05:48;8.60;;;4.32;;
6564;SDS011;3316;44.118;27.258;2023-04-24T09:08:16;7.47;;;3.75;;
6564;SDS011;3316;44.118;27.258;2023-04-24T09:10:43;6.43;;;3.67;;
6564;SDS011;3316;44.118;27.258;2023-04-24T09:13:09;8.20;;;4.10;;
6564;SDS011;3316;44.118;27.258;2023-04-24T09:15:35;8.02;;;3.50;;
6564;SDS011;3316;44.118;27.258;2023-04-24T09:18:01;7.85;;;4.15;;
6564;SDS011;3316;44.118;27.258;2023-04-24T09:20:27;9.27;;;4.03;;
6564;SDS011;3316;44.118;27.258;2023-04-24T09:22:58;7.22;;;3.92;;
6564;SDS011;3316;44.118;27.258;2023-04-24T09:25:31;18.90;;;7.15;;
6564;SDS011;3316;44.118;27.258;2023-04-24T09:28:00;5.40;;;3.40;;
6564;SDS011;3316;44.118;27.258;2023-04-24T09:30:27;9.30;;;4.03;;
6564;SDS011;3316;44.118;27.258;2023-04-24T09:33:12;12.77;;;4.15;;
6564;SDS011;3316;44.118;27.258;2023-04-24T09:35:40;9.23;;;4.30;;
6564;SDS011;3316;44.118;27.258;2023-04-24T09:38:15;9.48;;;4.22;;
6564;SDS011;3316;44.118;27.258;2023-04-24T09:40:41;7.53;;;3.45;;
6564;SDS011;3316;44.118;27.258;2023-04-24T09:43:09;38.67;;;14.65;;
6564;SDS011;3316;44.118;27.258;2023-04-24T09:45:36;19.92;;;7.78;;
6564;SDS011;3316;44.118;27.258;2023-04-24T09:48:03;12.02;;;5.78;;
6564;SDS011;3316;44.118;27.258;2023-04-24T09:50:30;13.60;;;6.57;;
6564;SDS011;3316;44.118;27.258;2023-04-24T09:53:03;10.20;;;3.95;;
6564;SDS011;3316;44.118;27.258;2023-04-24T09:55:30;9.27;;;4.05;;
6564;SDS011;3316;44.118;27.258;2023-04-24T09:57:57;8.95;;;3.90;;
6564;SDS011;3316;44.118;27.258;2023-04-24T10:00:27;8.50;;;4.10;;
6564;SDS011;3316;44.118;27.258;2023-04-24T10:03:03;9.55;;;3.83;;
6564;SDS011;3316;44.118;27.258;2023-04-24T10:08:10;11.50;;;3.50;;
6564;SDS011;3316;44.118;27.258;2023-04-24T10:10:41;8.20;;;3.75;;
6564;SDS011;3316;44.118;27.258;2023-04-24T10:13:09;7.15;;;4.50;;
6564;SDS011;3316;44.118;27.258;2023-04-24T10:15:36;9.57;;;3.72;;
6564;SDS011;3316;44.118;27.258;2023-04-24T10:18:03;11.63;;;3.65;;
6564;SDS011;3316;44.118;27.258;2023-04-24T10:20:31;11.10;;;3.92;;
6564;SDS011;3316;44.118;27.258;2023-04-24T10:22:58;12.75;;;4.00;;
6564;SDS011;3316;44.118;27.258;2023-04-24T10:25:25;9.02;;;3.70;;
6564;SDS011;3316;44.118;27.258;2023-04-24T10:27:55;17.10;;;4.50;;
6564;SDS011;3316;44.118;27.258;2023-04-24T10:30:24;9.57;;;3.60;;
6564;SDS011;3316;44.118;27.258;2023-04-24T10:32:50;10.80;;;4.07;;
6564;SDS011;3316;44.118;27.258;2023-04-24T10:35:15;8.07;;;3.33;;
6564;SDS011;3316;44.118;27.258;2023-04-24T10:40:10;9.43;;;4.20;;
6564;SDS011;3316;44.118;27.258;2023-04-24T10:42:39;14.50;;;3.95;;
6564;SDS011;3316;44.118;27.258;2023-04-24T10:45:21;8.85;;;3.55;;
6564;SDS011;3316;44.118;27.258;2023-04-24T10:47:57;15.82;;;4.13;;
6564;SDS011;3316;44.118;27.258;2023-04-24T10:50:26;5.50;;;3.10;;
6564;SDS011;3316;44.118;27.258;2023-04-24T10:53:06;7.22;;;3.33;;
6564;SDS011;3316;44.118;27.258;2023-04-24T10:55:57;13.85;;;3.33;;
6564;SDS011;3316;44.118;27.258;2023-04-24T10:58:40;6.82;;;3.45;;
6564;SDS011;3316;44.118;27.258;2023-04-24T11:01:44;11.68;;;4.20;;
6564;SDS011;3316;44.118;27.258;2023-04-24T11:04:03;7.30;;;4.18;;
6564;SDS011;3316;44.118;27.258;2023-04-24T11:09:01;12.75;;;4.03;;
6564;SDS011;3316;44.118;27.258;2023-04-24T11:11:30;12.68;;;4.25;;
6564;SDS011;3316;44.118;27.258;2023-04-24T11:21:32;8.93;;;3.83;;
6564;SDS011;3316;44.118;27.258;2023-04-24T11:33:05;11.63;;;4.07;;
6564;SDS011;3316;44.118;27.258;2023-04-24T11:35:03;8.10;;;4.30;;
6564;SDS011;3316;44.118;27.258;2023-04-24T11:39:58;10.63;;;3.92;;
6564;SDS011;3316;44.118;27.258;2023-04-24T11:42:24;10.38;;;4.13;;
6564;SDS011;3316;44.118;27.258;2023-04-24T11:44:53;4.57;;;2.83;;
6564;SDS011;3316;44.118;27.258;2023-04-24T11:47:28;7.75;;;4.00;;
6564;SDS011;3316;44.118;27.258;2023-04-24T11:49:55;6.18;;;3.33;;
6564;SDS011;3316;44.118;27.258;2023-04-24T11:52:20;15.55;;;4.22;;
6564;SDS011;3316;44.118;27.258;2023-04-24T11:54:49;4.75;;;4.10;;
6564;SDS011;3316;44.118;27.258;2023-04-24T11:57:15;8.23;;;4.50;;
6564;SDS011;3316;44.118;27.258;2023-04-24T11:59:41;5.22;;;3.85;;
6564;SDS011;3316;44.118;27.258;2023-04-24T12:02:07;10.32;;;3.97;;
6564;SDS011;3316;44.118;27.258;2023-04-24T12:04:39;6.70;;;3.70;;
6564;SDS011;3316;44.118;27.258;2023-04-24T12:07:06;8.98;;;4.00;;
6564;SDS011;3316;44.118;27.258;2023-04-24T12:12:11;6.28;;;3.47;;
6564;SDS011;3316;44.118;27.258;2023-04-24T12:14:45;5.45;;;3.90;;
6564;SDS011;3316;44.118;27.258;2023-04-24T12:17:15;7.75;;;3.70;;
6564;SDS011;3316;44.118;27.258;2023-04-24T12:19:48;6.03;;;3.47;;
6564;SDS011;3316;44.118;27.258;2023-04-24T12:22:15;4.93;;;3.83;;
6564;SDS011;3316;44.118;27.258;2023-04-24T12:27:32;9.10;;;3.97;;
6564;SDS011;3316;44.118;27.258;2023-04-24T12:29:59;8.15;;;4.63;;
6564;SDS011;3316;44.118;27.258;2023-04-24T12:32:25;6.97;;;4.07;;
6564;SDS011;3316;44.118;27.258;2023-04-24T12:34:54;7.05;;;4.13;;
6564;SDS011;3316;44.118;27.258;2023-04-24T12:37:21;7.07;;;3.88;;
6564;SDS011;3316;44.118;27.258;2023-04-24T12:40:05;8.82;;;3.60;;
6564;SDS011;3316;44.118;27.258;2023-04-24T12:42:32;8.40;;;3.67;;
6564;SDS011;3316;44.118;27.258;2023-04-24T12:44:59;6.22;;;3.25;;
6564;SDS011;3316;44.118;27.258;2023-04-24T12:47:27;6.13;;;3.88;;
6564;SDS011;3316;44.118;27.258;2023-04-24T12:49:53;8.27;;;3.70;;
6564;SDS011;3316;44.118;27.258;2023-04-24T12:52:20;5.25;;;3.40;;
6564;SDS011;3316;44.118;27.258;2023-04-24T12:54:49;15.93;;;4.30;;
6564;SDS011;3316;44.118;27.258;2023-04-24T12:57:16;6.18;;;3.60;;
6564;SDS011;3316;44.118;27.258;2023-04-24T12:59:42;7.88;;;3.95;;
6564;SDS011;3316;44.118;27.258;2023-04-24T13:02:08;20.75;;;6.45;;
6564;SDS011;3316;44.118;27.258;2023-04-24T13:04:35;8.45;;;3.90;;
6564;SDS011;3316;44.118;27.258;2023-04-24T13:07:00;7.63;;;3.30;;
6564;SDS011;3316;44.118;27.258;2023-04-24T13:09:25;9.07;;;3.55;;
6564;SDS011;3316;44.118;27.258;2023-04-24T13:11:51;10.63;;;3.45;;
6564;SDS011;3316;44.118;27.258;2023-04-24T13:14:16;8.18;;;3.97;;
6564;SDS011;3316;44.118;27.258;2023-04-24T13:16:42;9.20;;;4.00;;
6564;SDS011;3316;44.118;27.258;2023-04-24T13:19:07;6.15;;;3.40;;
6564;SDS011;3316;44.118;27.258;2023-04-24T13:21:33;6.57;;;3.35;;
6564;SDS011;3316;44.118;27.258;2023-04-24T13:23:58;5.15;;;3.42;;
6564;SDS011;3316;44.118;27.258;2023-04-24T13:26:24;12.85;;;4.00;;
6564;SDS011;3316;44.118;27.258;2023-04-24T13:28:49;7.68;;;3.83;;
6564;SDS011;3316;44.118;27.258;2023-04-24T13:31:15;7.07;;;3.85;;
6564;SDS011;3316;44.118;27.258;2023-04-24T13:33:40;2.95;;;2.45;;
6564;SDS011;3316;44.118;27.258;2023-04-24T13:36:06;7.35;;;3.55;;
6564;SDS011;3316;44.118;27.258;2023-04-24T13:38:31;8.80;;;3.60;;
6564;SDS011;3316;44.118;27.258;2023-04-24T13:40:57;7.10;;;3.85;;
6564;SDS011;3316;44.118;27.258;2023-04-24T13:43:22;7.47;;;3.55;;
6564;SDS011;3316;44.118;27.258;2023-04-24T13:45:48;6.25;;;3.00;;
6564;SDS011;3316;44.118;27.258;2023-04-24T13:48:13;5.53;;;3.10;;
6564;SDS011;3316;44.118;27.258;2023-04-24T13:50:43;6.38;;;3.05;;
6564;SDS011;3316;44.118;27.258;2023-04-24T13:53:09;3.03;;;2.45;;
6564;SDS011;3316;44.118;27.258;2023-04-24T13:55:34;9.02;;;3.83;;
6564;SDS011;3316;44.118;27.258;2023-04-24T13:58:01;7.95;;;3.65;;
6564;SDS011;3316;44.118;27.258;2023-04-24T14:00:27;5.82;;;3.75;;
6564;SDS011;3316;44.118;27.258;2023-04-24T14:02:53;14.80;;;3.88;;
6564;SDS011;3316;44.118;27.258;2023-04-24T14:05:18;9.30;;;3.97;;
6564;SDS011;3316;44.118;27.258;2023-04-24T14:07:44;8.15;;;4.25;;
6564;SDS011;3316;44.118;27.258;2023-04-24T14:10:09;7.25;;;3.70;;
6564;SDS011;3316;44.118;27.258;2023-04-24T14:12:35;8.13;;;3.50;;
6564;SDS011;3316;44.118;27.258;2023-04-24T14:15:01;9.48;;;3.70;;
6564;SDS011;3316;44.118;27.258;2023-04-24T14:17:26;5.93;;;3.53;;
6564;SDS011;3316;44.118;27.258;2023-04-24T14:19:52;12.70;;;3.53;;
6564;SDS011;3316;44.118;27.258;2023-04-24T14:22:21;8.10;;;3.53;;
6564;SDS011;3316;44.118;27.258;2023-04-24T14:24:46;5.70;;;3.33;;
6564;SDS011;3316;44.118;27.258;2023-04-24T14:27:12;9.10;;;3.30;;
6564;SDS011;3316;44.118;27.258;2023-04-24T14:29:37;8.50;;;3.38;;
6564;SDS011;3316;44.118;27.258;2023-04-24T14:32:02;14.25;;;3.58;;
6564;SDS011;3316;44.118;27.258;2023-04-24T14:34:28;7.78;;;2.92;;
6564;SDS011;3316;44.118;27.258;2023-04-24T14:36:53;9.98;;;3.38;;
6564;SDS011;3316;44.118;27.258;2023-04-24T14:39:19;10.32;;;3.20;;
6564;SDS011;3316;44.118;27.258;2023-04-24T14:41:45;11.50;;;3.42;;
6564;SDS011;3316;44.118;27.258;2023-04-24T14:44:10;12.83;;;4.00;;
6564;SDS011;3316;44.118;27.258;2023-04-24T14:46:36;10.40;;;3.80;;
6564;SDS011;3316;44.118;27.258;2023-04-24T14:49:01;8.67;;;3.83;;
6564;SDS011;3316;44.118;27.258;2023-04-24T14:51:27;11.57;;;4.67;;
6564;SDS011;3316;44.118;27.258;2023-04-24T14:53:52;16.87;;;5.27;;
6564;SDS011;3316;44.118;27.258;2023-04-24T14:56:18;10.37;;;4.00;;
6564;SDS011;3316;44.118;27.258;2023-04-24T14:58:43;9.63;;;3.77;;
6564;SDS011;3316;44.118;27.258;2023-04-24T15:01:09;7.57;;;3.13;;
6564;SDS011;3316;44.118;27.258;2023-04-24T15:03:35;8.73;;;3.90;;
6564;SDS011;3316;44.118;27.258;2023-04-24T15:06:01;8.87;;;3.13;;
6564;SDS011;3316;44.118;27.258;2023-04-24T15:08:27;7.23;;;3.90;;
6564;SDS011;3316;44.118;27.258;2023-04-24T15:10:52;7.07;;;3.53;;
6564;SDS011;3316;44.118;27.258;2023-04-24T15:13:18;7.57;;;3.40;;
6564;SDS011;3316;44.118;27.258;2023-04-24T15:15:45;6.23;;;3.97;;
6564;SDS011;3316;44.118;27.258;2023-04-24T15:18:12;6.23;;;4.03;;
6564;SDS011;3316;44.118;27.258;2023-04-24T15:20:37;5.73;;;3.23;;